Nuevo Batabano_prime — EA5102 — position and weather

sailwx.info

Track history (hours):
 
Tides and Currents Weather Stations Pressure Air Temp Water Temp Dewpoint Dewpoint Depression Visibility Wind Speed Wind Dir Waves Ship Positions

Nuevo Batabano_prime

Last reported at 2017-Sep-19 11:42 UTC. Time now 2017-Sep-24 17:52 UTC.
Position N 27°48' W 014°60'.

Length 25 m.

Type: Fishing. MMSI: 224015940.

Date/timePositionNaut miles runAvg speedWind from/ knotsBaromVisibWave heightAir tempDewpointWater temp
2017-Sep-19 11:42N 27°48' W 014°60'3 8.5
2017-Sep-19 11:20N 27°47' W 015°03'4 8.7
2017-Sep-19 10:49N 27°47' W 015°08'3 8.7
2017-Sep-19 10:30N 27°46' W 015°11'4 8.3
2017-Sep-19 09:58N 27°45' W 015°16'24 7.7
2017-Sep-19 06:53N 27°44' W 015°43'0 0.0
2017-Sep-19 06:09N 27°44' W 015°43'0 0.2
2017-Sep-19 05:58N 27°44' W 015°43'0 0.1
2017-Sep-19 05:22N 27°44' W 015°43'0 0.1
2017-Sep-19 04:47N 27°44' W 015°43'0 0.0
2017-Sep-19 03:55N 27°44' W 015°43'3 5.3
2017-Sep-19 03:23N 27°42' W 015°45'0 0.5
2017-Sep-19 02:59N 27°42' W 015°45'1 0.8
2017-Sep-19 02:16N 27°42' W 015°44'0 0.4
2017-Sep-19 01:52N 27°41' W 015°44'0 0.7
2017-Sep-19 01:23N 27°42' W 015°45'0 0.8
2017-Sep-19 00:56N 27°42' W 015°45'1 0.7
2017-Sep-19 00:11N 27°42' W 015°46'0 0.5
2017-Sep-18 23:57N 27°42' W 015°46'0 0.5
2017-Sep-18 23:29N 27°42' W 015°45'0 0.6
2017-Sep-18 22:52N 27°42' W 015°45'1 1.6
2017-Sep-18 22:27N 27°42' W 015°46'3 4.6
2017-Sep-18 21:48N 27°44' W 015°48'3 8.8
2017-Sep-18 21:24N 27°48' W 015°49'6 8.8
2017-Sep-18 20:45N 27°53' W 015°52'2 8.7
2017-Sep-18 20:29N 27°55' W 015°53'4 8.7
2017-Sep-18 19:59N 27°59' W 015°54'5 8.5
2017-Sep-18 19:24N 28°04' W 015°56'4 8.6
2017-Sep-18 18:58N 28°07' W 015°57'5 8.9
2017-Sep-18 18:27N 28°12' W 015°58'4 8.9
2017-Sep-18 17:58N 28°16' W 015°60'4 8.8
2017-Sep-18 17:30N 28°20' W 016°01'4 7.7
2017-Sep-18 16:57N 28°23' W 016°04'4 7.8
2017-Sep-18 16:26N 28°25' W 016°08'4 8.1
2017-Sep-18 15:56N 28°28' W 016°11'2 1.6
2017-Sep-18 14:38N 28°30' W 016°12'0 0.0
2017-Sep-18 14:11N 28°30' W 016°12'0 0.0
2017-Sep-18 14:00N 28°30' W 016°12'0 0.0
2017-Sep-18 13:28N 28°30' W 016°12'0 0.0
2017-Sep-18 13:00N 28°30' W 016°12'0 0.0
2017-Sep-18 12:26N 28°30' W 016°12'0 0.0
2017-Sep-18 11:48N 28°30' W 016°12'0 0.0
2017-Sep-18 11:21N 28°30' W 016°12'0 0.0
2017-Sep-18 10:58N 28°30' W 016°12'0 0.0
2017-Sep-18 10:26N 28°30' W 016°12'0 0.0
2017-Sep-18 09:59N 28°30' W 016°12'0 0.0
2017-Sep-18 09:30N 28°30' W 016°12'0 0.0
2017-Sep-18 08:58N 28°30' W 016°12'  
2017-Sep-15 09:01N 28°30' W 016°12'0 0.0
2017-Sep-15 09:00N 28°30' W 016°12'0 0.0
2017-Sep-15 08:09N 28°30' W 016°12'0 0.0
2017-Sep-14 12:38N 28°30' W 016°12'0 0.0
2017-Sep-14 12:20N 28°30' W 016°12'0 0.0
2017-Sep-14 11:59N 28°30' W 016°12'0 0.0
2017-Sep-14 11:30N 28°30' W 016°12'0 0.0
2017-Sep-14 10:51N 28°30' W 016°12'0 0.0
2017-Sep-14 10:15N 28°30' W 016°12'0 0.0
2017-Sep-14 09:59N 28°30' W 016°12'0 0.0
2017-Sep-14 09:19N 28°30' W 016°12'0 0.0
2017-Sep-14 08:56N 28°30' W 016°12'0 0.0
2017-Sep-14 08:26N 28°30' W 016°12'0 0.0
2017-Sep-14 07:59N 28°30' W 016°12'1 0.0
2017-Sep-12 11:13N 28°29' W 016°13'1 4.4
2017-Sep-12 10:56N 28°29' W 016°11'3 6.9
2017-Sep-12 10:30N 28°27' W 016°09'4 7.1
2017-Sep-12 09:54N 28°26' W 016°04'3 6.9
2017-Sep-12 09:26N 28°25' W 016°01'3 6.9
2017-Sep-12 09:00N 28°24' W 015°57'4 7.1
2017-Sep-12 08:22N 28°23' W 015°52'3 7.1
2017-Sep-12 08:00N 28°22' W 015°50'4 7.3
2017-Sep-12 07:29N 28°21' W 015°45'3 6.6
2017-Sep-12 07:00N 28°20' W 015°42'3 5.7
2017-Sep-12 06:30N 28°19' W 015°39'3 5.6
2017-Sep-12 06:00N 28°18' W 015°36'3 6.0
2017-Sep-12 05:30N 28°16' W 015°33'3 6.0
2017-Sep-12 05:01N 28°16' W 015°30'3 6.0
2017-Sep-12 04:31N 28°15' W 015°27'3 6.4
2017-Sep-12 04:00N 28°13' W 015°23'3 6.6
2017-Sep-12 03:30N 28°12' W 015°20'3 6.1
2017-Sep-12 03:00N 28°11' W 015°17'3 6.1
2017-Sep-12 02:30N 28°10' W 015°14'3 6.3
2017-Sep-12 02:00N 28°09' W 015°10'3 6.0
2017-Sep-12 01:30N 28°07' W 015°07'3 5.7
2017-Sep-12 01:00N 28°05' W 015°05'3 5.6
2017-Sep-12 00:30N 28°04' W 015°02'3 5.5
2017-Sep-12 00:00N 28°03' W 014°59'3 5.3
2017-Sep-11 23:30N 28°01' W 014°57'3 5.1
2017-Sep-11 23:00N 27°60' W 014°54'3 5.4
2017-Sep-11 22:31N 27°58' W 014°52'3 5.5
2017-Sep-11 22:00N 27°57' W 014°49'3 2.1
2017-Sep-11 20:31N 27°56' W 014°46'0 0.4
2017-Sep-11 20:30N 27°56' W 014°46'0 0.0
2017-Sep-11 20:00N 27°56' W 014°46'0 0.0
2017-Sep-11 19:30N 27°56' W 014°46'0 0.0
2017-Sep-11 19:01N 27°56' W 014°46'0 0.0
2017-Sep-11 18:30N 27°56' W 014°46'0 0.0
2017-Sep-11 18:00N 27°56' W 014°46'0 0.0
2017-Sep-11 17:30N 27°56' W 014°46'0 0.0
2017-Sep-11 17:00N 27°56' W 014°46'0 0.0
2017-Sep-11 16:30N 27°56' W 014°46'0 0.0
2017-Sep-11 16:00N 27°56' W 014°46'0 0.1
2017-Sep-11 15:30N 27°56' W 014°45'0 0.0
2017-Sep-11 15:00N 27°56' W 014°45'0 0.0
2017-Sep-11 14:30N 27°56' W 014°45'0 0.0
2017-Sep-11 14:00N 27°56' W 014°45'0 0.1
2017-Sep-11 13:30N 27°56' W 014°46'0 0.1
2017-Sep-11 13:00N 27°56' W 014°46'0 0.2
2017-Sep-11 12:30N 27°56' W 014°46'0 0.0
2017-Sep-11 11:50N 27°56' W 014°46'0 0.1
2017-Sep-11 11:30N 27°56' W 014°46'0 0.6
2017-Sep-11 10:57N 27°56' W 014°45'2 5.1
2017-Sep-11 10:30N 27°55' W 014°43'  
Track history (hours):
 
Tides and Currents Weather Stations Pressure Air Temp Water Temp Dewpoint Dewpoint Depression Visibility Wind Speed Wind Dir Waves Ship Positions

Nuevo Batabano_prime

Last reported at 2017-Sep-19 11:42 UTC. Time now 2017-Sep-24 17:52 UTC.
Position N 27°48' W 014°60'.

Length 25 m.

Type: Fishing. MMSI: 224015940.

Date/timePositionNaut miles runAvg speedWind from/ knotsBaromVisibWave heightAir tempDewpointWater temp
2017-Sep-19 11:42N 27°48' W 014°60'3 8.5
2017-Sep-19 11:20N 27°47' W 015°03'4 8.7
2017-Sep-19 10:49N 27°47' W 015°08'3 8.7
2017-Sep-19 10:30N 27°46' W 015°11'4 8.3
2017-Sep-19 09:58N 27°45' W 015°16'24 7.7
2017-Sep-19 06:53N 27°44' W 015°43'0 0.0
2017-Sep-19 06:09N 27°44' W 015°43'0 0.2
2017-Sep-19 05:58N 27°44' W 015°43'0 0.1
2017-Sep-19 05:22N 27°44' W 015°43'0 0.1
2017-Sep-19 04:47N 27°44' W 015°43'0 0.0
2017-Sep-19 03:55N 27°44' W 015°43'3 5.3
2017-Sep-19 03:23N 27°42' W 015°45'0 0.5
2017-Sep-19 02:59N 27°42' W 015°45'1 0.8
2017-Sep-19 02:16N 27°42' W 015°44'0 0.4
2017-Sep-19 01:52N 27°41' W 015°44'0 0.7
2017-Sep-19 01:23N 27°42' W 015°45'0 0.8
2017-Sep-19 00:56N 27°42' W 015°45'1 0.7
2017-Sep-19 00:11N 27°42' W 015°46'0 0.5
2017-Sep-18 23:57N 27°42' W 015°46'0 0.5
2017-Sep-18 23:29N 27°42' W 015°45'0 0.6
2017-Sep-18 22:52N 27°42' W 015°45'1 1.6
2017-Sep-18 22:27N 27°42' W 015°46'3 4.6
2017-Sep-18 21:48N 27°44' W 015°48'3 8.8
2017-Sep-18 21:24N 27°48' W 015°49'6 8.8
2017-Sep-18 20:45N 27°53' W 015°52'2 8.7
2017-Sep-18 20:29N 27°55' W 015°53'4 8.7
2017-Sep-18 19:59N 27°59' W 015°54'5 8.5
2017-Sep-18 19:24N 28°04' W 015°56'4 8.6
2017-Sep-18 18:58N 28°07' W 015°57'5 8.9
2017-Sep-18 18:27N 28°12' W 015°58'4 8.9
2017-Sep-18 17:58N 28°16' W 015°60'4 8.8
2017-Sep-18 17:30N 28°20' W 016°01'4 7.7
2017-Sep-18 16:57N 28°23' W 016°04'4 7.8
2017-Sep-18 16:26N 28°25' W 016°08'4 8.1
2017-Sep-18 15:56N 28°28' W 016°11'2 1.6
2017-Sep-18 14:38N 28°30' W 016°12'0 0.0
2017-Sep-18 14:11N 28°30' W 016°12'0 0.0
2017-Sep-18 14:00N 28°30' W 016°12'0 0.0
2017-Sep-18 13:28N 28°30' W 016°12'0 0.0
2017-Sep-18 13:00N 28°30' W 016°12'0 0.0
2017-Sep-18 12:26N 28°30' W 016°12'0 0.0
2017-Sep-18 11:48N 28°30' W 016°12'0 0.0
2017-Sep-18 11:21N 28°30' W 016°12'0 0.0
2017-Sep-18 10:58N 28°30' W 016°12'0 0.0
2017-Sep-18 10:26N 28°30' W 016°12'0 0.0
2017-Sep-18 09:59N 28°30' W 016°12'0 0.0
2017-Sep-18 09:30N 28°30' W 016°12'0 0.0
2017-Sep-18 08:58N 28°30' W 016°12'  
2017-Sep-15 09:01N 28°30' W 016°12'0 0.0
2017-Sep-15 09:00N 28°30' W 016°12'0 0.0
2017-Sep-15 08:09N 28°30' W 016°12'0 0.0
2017-Sep-14 12:38N 28°30' W 016°12'0 0.0
2017-Sep-14 12:20N 28°30' W 016°12'0 0.0
2017-Sep-14 11:59N 28°30' W 016°12'0 0.0
2017-Sep-14 11:30N 28°30' W 016°12'0 0.0
2017-Sep-14 10:51N 28°30' W 016°12'0 0.0
2017-Sep-14 10:15N 28°30' W 016°12'0 0.0
2017-Sep-14 09:59N 28°30' W 016°12'0 0.0
2017-Sep-14 09:19N 28°30' W 016°12'0 0.0
2017-Sep-14 08:56N 28°30' W 016°12'0 0.0
2017-Sep-14 08:26N 28°30' W 016°12'0 0.0
2017-Sep-14 07:59N 28°30' W 016°12'1 0.0
2017-Sep-12 11:13N 28°29' W 016°13'1 4.4
2017-Sep-12 10:56N 28°29' W 016°11'3 6.9
2017-Sep-12 10:30N 28°27' W 016°09'4 7.1
2017-Sep-12 09:54N 28°26' W 016°04'3 6.9
2017-Sep-12 09:26N 28°25' W 016°01'3 6.9
2017-Sep-12 09:00N 28°24' W 015°57'4 7.1
2017-Sep-12 08:22N 28°23' W 015°52'3 7.1
2017-Sep-12 08:00N 28°22' W 015°50'4 7.3
2017-Sep-12 07:29N 28°21' W 015°45'3 6.6
2017-Sep-12 07:00N 28°20' W 015°42'3 5.7
2017-Sep-12 06:30N 28°19' W 015°39'3 5.6
2017-Sep-12 06:00N 28°18' W 015°36'3 6.0
2017-Sep-12 05:30N 28°16' W 015°33'3 6.0
2017-Sep-12 05:01N 28°16' W 015°30'3 6.0
2017-Sep-12 04:31N 28°15' W 015°27'3 6.4
2017-Sep-12 04:00N 28°13' W 015°23'3 6.6
2017-Sep-12 03:30N 28°12' W 015°20'3 6.1
2017-Sep-12 03:00N 28°11' W 015°17'3 6.1
2017-Sep-12 02:30N 28°10' W 015°14'3 6.3
2017-Sep-12 02:00N 28°09' W 015°10'3 6.0
2017-Sep-12 01:30N 28°07' W 015°07'3 5.7
2017-Sep-12 01:00N 28°05' W 015°05'3 5.6
2017-Sep-12 00:30N 28°04' W 015°02'3 5.5
2017-Sep-12 00:00N 28°03' W 014°59'3 5.3
2017-Sep-11 23:30N 28°01' W 014°57'3 5.1
2017-Sep-11 23:00N 27°60' W 014°54'3 5.4
2017-Sep-11 22:31N 27°58' W 014°52'3 5.5
2017-Sep-11 22:00N 27°57' W 014°49'3 2.1
2017-Sep-11 20:31N 27°56' W 014°46'0 0.4
2017-Sep-11 20:30N 27°56' W 014°46'0 0.0
2017-Sep-11 20:00N 27°56' W 014°46'0 0.0
2017-Sep-11 19:30N 27°56' W 014°46'0 0.0
2017-Sep-11 19:01N 27°56' W 014°46'0 0.0
2017-Sep-11 18:30N 27°56' W 014°46'0 0.0
2017-Sep-11 18:00N 27°56' W 014°46'0 0.0
2017-Sep-11 17:30N 27°56' W 014°46'0 0.0
2017-Sep-11 17:00N 27°56' W 014°46'0 0.0
2017-Sep-11 16:30N 27°56' W 014°46'0 0.0
2017-Sep-11 16:00N 27°56' W 014°46'0 0.1
2017-Sep-11 15:30N 27°56' W 014°45'0 0.0
2017-Sep-11 15:00N 27°56' W 014°45'0 0.0
2017-Sep-11 14:30N 27°56' W 014°45'0 0.0
2017-Sep-11 14:00N 27°56' W 014°45'0 0.1
2017-Sep-11 13:30N 27°56' W 014°46'0 0.1
2017-Sep-11 13:00N 27°56' W 014°46'0 0.2
2017-Sep-11 12:30N 27°56' W 014°46'0 0.0
2017-Sep-11 11:50N 27°56' W 014°46'0 0.1
2017-Sep-11 11:30N 27°56' W 014°46'0 0.6
2017-Sep-11 10:57N 27°56' W 014°45'2 5.1
2017-Sep-11 10:30N 27°55' W 014°43'  

Dump ship's entire track history